METAR Data
IDs: Format: Raw Decoded Include TAF

Data at: 0708 UTC 03 Aug 2021

KSLI 030658Z AUTO 00000KT 10SM CLR 18/15 A2997 RMK AO2 SLP152 T01760154